Time;durP1;ratioP1;P1;durP2;ratioP2;P2;SDS_P1;SDS_P2;PMS_P1;PMS_P2;Temp;Humidity;BMP_temperature;BMP_pressure;BME280_temperature;BME280_humidity;BME280_pressure;Samples;Min_cycle;Max_cycle;Signal;HPM_P1;HPM_P2
2021/06/30 00:02:28;;;;;;;11.70;7.80;;;21.20;99.90;;;;;;4396430;32;20151;-71
2021/06/30 00:05:00;;;;;;;9.48;7.60;;;21.10;99.90;;;;;;4394122;32;20442;-71
2021/06/30 00:07:32;;;;;;;8.85;7.05;;;21.10;99.90;;;;;;4394348;32;20201;-70
2021/06/30 00:10:08;;;;;;;10.57;8.00;;;21.00;99.90;;;;;;4394125;32;20135;-70
2021/06/30 00:12:39;;;;;;;12.20;8.50;;;21.00;99.90;;;;;;4395843;32;20461;-70
2021/06/30 00:15:17;;;;;;;12.00;7.60;;;21.00;99.90;;;;;;4395497;32;20148;-70
2021/06/30 00:17:49;;;;;;;10.87;7.80;;;21.00;99.90;;;;;;4394642;32;20214;-70
2021/06/30 00:20:21;;;;;;;10.93;7.93;;;21.00;99.90;;;;;;4394082;32;20131;-70
2021/06/30 00:22:53;;;;;;;10.87;8.00;;;21.00;99.90;;;;;;4394261;32;20151;-69
2021/06/30 00:25:24;;;;;;;12.23;8.43;;;20.90;99.90;;;;;;4395478;32;20190;-70
2021/06/30 00:27:56;;;;;;;13.17;8.37;;;20.90;99.90;;;;;;4394489;32;20178;-70
2021/06/30 00:30:28;;;;;;;11.77;8.73;;;20.80;99.90;;;;;;4395365;32;20155;-69
2021/06/30 00:33:00;;;;;;;13.03;8.67;;;20.70;99.90;;;;;;4394093;32;20192;-69
2021/06/30 00:35:32;;;;;;;10.97;8.97;;;20.60;99.90;;;;;;4395388;32;20163;-69
2021/06/30 00:38:04;;;;;;;10.83;8.60;;;20.60;99.90;;;;;;4395514;32;20370;-69
2021/06/30 00:40:36;;;;;;;16.30;8.70;;;20.60;99.90;;;;;;4394359;32;20512;-69
2021/06/30 00:43:08;;;;;;;11.30;8.87;;;20.60;99.90;;;;;;4394374;32;20202;-70
2021/06/30 00:45:40;;;;;;;12.10;8.53;;;20.50;99.90;;;;;;4394026;32;20144;-69
2021/06/30 00:48:10;;;;;;;14.83;8.90;;;20.50;99.90;;;;;;4394580;32;20155;-69
2021/06/30 00:50:44;;;;;;;11.87;8.30;;;20.40;99.90;;;;;;4395578;32;20171;-69
2021/06/30 00:53:16;;;;;;;11.73;8.43;;;20.40;99.90;;;;;;4395194;32;20154;-69
2021/06/30 00:55:50;;;;;;;11.70;9.17;;;20.40;99.90;;;;;;4395034;32;20175;-69
2021/06/30 00:58:22;;;;;;;12.47;8.97;;;20.30;99.90;;;;;;4395263;32;20132;-69
2021/06/30 01:00:54;;;;;;;10.87;8.50;;;20.30;99.90;;;;;;4393656;32;20159;-69
2021/06/30 01:03:25;;;;;;;11.40;8.80;;;20.30;99.90;;;;;;4394921;32;20144;-69
2021/06/30 01:05:57;;;;;;;12.43;8.90;;;20.30;99.90;;;;;;4394930;32;20231;-69
2021/06/30 01:08:29;;;;;;;12.43;9.93;;;20.20;99.90;;;;;;4395135;32;20182;-69
2021/06/30 01:11:01;;;;;;;11.97;9.27;;;20.10;99.90;;;;;;4395124;32;20143;-68
2021/06/30 01:13:33;;;;;;;14.37;9.90;;;20.00;99.90;;;;;;4394990;32;20151;-69
2021/06/30 01:16:06;;;;;;;12.30;9.57;;;19.90;99.90;;;;;;4393295;32;20140;-69
2021/06/30 01:18:38;;;;;;;13.83;9.37;;;19.90;99.90;;;;;;4394713;32;20179;-68
2021/06/30 01:21:11;;;;;;;12.67;10.20;;;19.90;99.90;;;;;;4394676;32;20155;-68
2021/06/30 01:23:43;;;;;;;12.67;9.40;;;19.80;99.90;;;;;;4394671;32;20195;-69
2021/06/30 01:26:15;;;;;;;12.97;9.90;;;19.80;99.90;;;;;;4394998;32;20160;-69
2021/06/30 01:28:47;;;;;;;13.50;10.17;;;19.70;99.90;;;;;;4394782;32;20202;-69
2021/06/30 01:31:19;;;;;;;12.97;9.53;;;19.70;99.90;;;;;;4394021;32;20278;-69
2021/06/30 01:33:51;;;;;;;13.00;10.13;;;19.70;99.90;;;;;;4393176;32;20182;-69
2021/06/30 01:36:23;;;;;;;13.30;9.57;;;19.60;99.90;;;;;;4394709;32;20170;-69
2021/06/30 01:38:55;;;;;;;13.40;9.87;;;19.60;99.90;;;;;;4394954;32;20528;-69
2021/06/30 01:41:27;;;;;;;13.43;9.43;;;19.60;99.90;;;;;;4392826;32;20174;-70
2021/06/30 01:43:59;;;;;;;12.10;9.00;;;19.60;99.90;;;;;;4394990;32;20140;-70
2021/06/30 01:46:31;;;;;;;15.90;9.60;;;19.60;99.90;;;;;;4393596;32;20501;-70
2021/06/30 01:49:03;;;;;;;11.90;9.40;;;19.50;99.90;;;;;;4392765;32;20178;-69
2021/06/30 01:51:36;;;;;;;11.97;9.17;;;19.50;99.90;;;;;;4394717;32;20186;-70
2021/06/30 01:54:14;;;;;;;12.47;8.77;;;19.50;99.90;;;;;;4394312;32;20186;-70
2021/06/30 01:56:49;;;;;;;14.50;9.47;;;19.50;99.90;;;;;;4394559;32;20166;-70
2021/06/30 01:59:21;;;;;;;12.40;9.33;;;19.50;99.90;;;;;;4394408;32;20144;-70
2021/06/30 02:01:53;;;;;;;11.50;9.20;;;19.50;99.90;;;;;;4394417;32;20143;-70
2021/06/30 02:04:25;;;;;;;12.17;9.57;;;19.50;99.90;;;;;;4393562;32;20165;-70
2021/06/30 02:06:56;;;;;;;11.80;8.70;;;19.50;99.90;;;;;;4394278;32;20170;-70
2021/06/30 02:09:28;;;;;;;11.90;8.70;;;19.50;99.90;;;;;;4393114;32;20179;-70
2021/06/30 02:12:00;;;;;;;13.47;10.07;;;19.50;99.90;;;;;;4392912;32;20198;-71
2021/06/30 02:14:32;;;;;;;12.63;8.70;;;19.40;99.90;;;;;;4393085;32;20148;-70
2021/06/30 02:17:04;;;;;;;13.33;9.13;;;19.40;99.90;;;;;;4394885;32;20203;-70
2021/06/30 02:19:36;;;;;;;12.87;9.50;;;19.40;99.90;;;;;;4394782;32;20181;-70
2021/06/30 02:22:07;;;;;;;10.47;9.03;;;19.30;99.90;;;;;;4394692;32;20212;-71
2021/06/30 02:24:39;;;;;;;12.37;9.30;;;19.20;99.90;;;;;;4393621;32;20131;-71
2021/06/30 02:27:11;;;;;;;11.43;8.97;;;19.30;99.90;;;;;;4394282;32;20389;-70
2021/06/30 02:29:43;;;;;;;13.07;9.37;;;19.20;99.90;;;;;;4394490;32;20148;-71
2021/06/30 02:32:15;;;;;;;11.87;9.17;;;19.20;99.90;;;;;;4393096;32;20151;-70
2021/06/30 02:34:47;;;;;;;11.17;8.93;;;19.20;99.90;;;;;;4393190;32;20421;-71
2021/06/30 02:37:18;;;;;;;12.37;9.10;;;19.20;99.90;;;;;;4394762;32;20245;-70
2021/06/30 02:39:50;;;;;;;11.03;8.67;;;19.30;99.90;;;;;;4393130;32;20185;-70
2021/06/30 02:42:22;;;;;;;12.07;8.93;;;19.30;99.90;;;;;;4394181;32;20189;-71
2021/06/30 02:44:54;;;;;;;11.37;8.83;;;19.30;99.90;;;;;;4394225;32;20140;-70
2021/06/30 02:47:26;;;;;;;11.53;9.23;;;19.30;99.90;;;;;;4393815;32;20206;-69
2021/06/30 02:49:58;;;;;;;11.83;8.50;;;19.40;99.90;;;;;;4392963;32;20159;-71
2021/06/30 02:52:30;;;;;;;11.13;8.90;;;19.50;99.90;;;;;;4395165;32;20196;-70
2021/06/30 02:55:03;;;;;;;10.93;8.83;;;19.60;99.90;;;;;;4396509;32;20185;-70
2021/06/30 02:57:35;;;;;;;11.27;8.57;;;19.70;99.90;;;;;;4396984;32;20182;-70
2021/06/30 03:00:14;;;;;;;11.00;9.53;;;19.70;99.90;;;;;;4396895;32;20485;-70
2021/06/30 03:02:47;;;;;;;11.63;8.93;;;19.80;99.90;;;;;;4397824;32;20443;-69
2021/06/30 03:05:19;;;;;;;12.73;8.70;;;19.80;99.90;;;;;;4396839;32;20185;-70
2021/06/30 03:07:51;;;;;;;12.43;9.77;;;19.90;99.90;;;;;;4396979;32;20139;-71
2021/06/30 03:10:23;;;;;;;12.53;9.50;;;20.00;99.90;;;;;;4396641;32;20151;-70
2021/06/30 03:12:55;;;;;;;13.73;9.30;;;20.10;99.90;;;;;;4396696;32;20477;-69
2021/06/30 03:15:27;;;;;;;13.60;9.90;;;20.10;99.90;;;;;;4396658;32;20205;-69
2021/06/30 03:17:58;;;;;;;12.37;9.10;;;20.20;99.90;;;;;;4397011;32;20163;-70
2021/06/30 03:20:30;;;;;;;13.87;9.77;;;20.30;99.90;;;;;;4397354;32;20465;-70
2021/06/30 03:23:02;;;;;;;13.47;10.43;;;20.30;99.90;;;;;;4395064;32;20189;-69
2021/06/30 03:25:34;;;;;;;13.87;10.17;;;20.30;99.90;;;;;;4395123;32;20512;-69
2021/06/30 03:28:06;;;;;;;13.67;9.47;;;20.40;99.90;;;;;;4396905;32;20140;-69
2021/06/30 03:30:38;;;;;;;15.20;11.10;;;20.50;99.90;;;;;;4396629;32;20164;-69
2021/06/30 03:33:10;;;;;;;14.73;10.30;;;20.50;99.90;;;;;;4395403;32;20210;-69
2021/06/30 03:35:42;;;;;;;12.90;9.80;;;20.60;99.90;;;;;;4395215;32;20239;-69
2021/06/30 03:38:14;;;;;;;11.23;9.60;;;20.70;99.90;;;;;;4396355;32;20139;-69
2021/06/30 03:40:47;;;;;;;13.20;9.47;;;20.70;99.90;;;;;;4394707;32;20151;-69
2021/06/30 03:43:18;;;;;;;12.10;8.87;;;20.60;99.90;;;;;;4395174;32;20364;-70
2021/06/30 03:45:50;;;;;;;11.67;9.10;;;20.60;99.90;;;;;;4394705;32;20164;-69
2021/06/30 03:48:22;;;;;;;10.57;8.30;;;20.50;99.90;;;;;;4394596;32;20159;-69
2021/06/30 03:50:54;;;;;;;11.83;8.53;;;20.40;99.90;;;;;;4396036;32;20470;-70
2021/06/30 03:53:26;;;;;;;11.60;8.40;;;20.40;99.90;;;;;;4394512;32;20144;-69
2021/06/30 03:55:58;;;;;;;9.47;7.70;;;20.30;99.90;;;;;;4394562;32;20477;-70
2021/06/30 03:58:30;;;;;;;12.93;8.33;;;20.50;99.90;;;;;;4396377;32;20603;-70
2021/06/30 04:01:02;;;;;;;10.00;7.80;;;20.60;99.90;;;;;;4395031;32;20148;-69
2021/06/30 04:03:34;;;;;;;9.77;7.93;;;20.60;99.90;;;;;;4395955;32;20169;-70
2021/06/30 04:06:06;;;;;;;10.63;8.00;;;20.60;99.90;;;;;;4395865;32;20215;-70
2021/06/30 04:08:38;;;;;;;10.53;7.50;;;20.60;99.90;;;;;;4395918;32;20147;-70
2021/06/30 04:11:09;;;;;;;8.77;7.77;;;20.60;99.90;;;;;;4394911;32;20281;-70
2021/06/30 04:13:41;;;;;;;8.97;7.50;;;20.70;99.90;;;;;;4394937;32;20159;-69
2021/06/30 04:16:13;;;;;;;11.47;8.23;;;20.70;99.90;;;;;;4395956;32;20166;-70
2021/06/30 04:18:45;;;;;;;10.10;7.67;;;20.80;99.90;;;;;;4395426;32;20159;-69
2021/06/30 04:21:17;;;;;;;9.93;7.90;;;20.80;99.90;;;;;;4395541;32;20136;-69
2021/06/30 04:23:50;;;;;;;12.57;7.83;;;20.80;99.90;;;;;;4395878;32;20178;-69
2021/06/30 04:26:22;;;;;;;9.73;8.13;;;20.80;99.90;;;;;;4395595;32;20139;-69
2021/06/30 04:28:54;;;;;;;9.70;7.83;;;20.80;99.90;;;;;;4394091;32;20408;-70
2021/06/30 04:31:25;;;;;;;9.77;7.77;;;20.90;99.90;;;;;;4395413;32;20212;-69
2021/06/30 04:33:57;;;;;;;9.63;7.47;;;20.90;99.90;;;;;;4394063;32;20190;-69
2021/06/30 04:36:29;;;;;;;8.33;7.23;;;21.00;99.90;;;;;;4394368;32;20199;-69
2021/06/30 04:39:01;;;;;;;8.97;7.77;;;21.10;99.90;;;;;;4393767;32;20140;-69
2021/06/30 04:41:33;;;;;;;8.53;7.50;;;21.20;99.90;;;;;;4395429;32;20148;-69
2021/06/30 04:44:05;;;;;;;10.60;8.03;;;21.30;99.90;;;;;;4394002;32;20170;-69
2021/06/30 04:46:36;;;;;;;9.47;8.10;;;21.40;99.90;;;;;;4395606;32;20148;-69
2021/06/30 04:49:08;;;;;;;10.57;7.73;;;21.30;99.90;;;;;;4393716;32;20203;-69
2021/06/30 04:51:42;;;;;;;11.73;8.10;;;21.50;99.90;;;;;;4395020;32;20180;-68
2021/06/30 04:54:14;;;;;;;9.60;7.60;;;21.50;99.90;;;;;;4394594;32;20155;-69
2021/06/30 04:56:45;;;;;;;11.30;7.73;;;21.50;99.90;;;;;;4394842;32;20136;-69
2021/06/30 04:59:17;;;;;;;10.73;7.60;;;21.50;99.90;;;;;;4394768;32;20144;-69
2021/06/30 05:01:50;;;;;;;13.10;7.70;;;21.50;99.90;;;;;;4394992;32;20217;-69
2021/06/30 05:04:22;;;;;;;10.20;7.73;;;21.60;99.90;;;;;;4394280;32;20419;-68
2021/06/30 05:06:54;;;;;;;11.97;8.23;;;21.70;99.90;;;;;;4394453;32;20184;-68
2021/06/30 05:09:25;;;;;;;11.57;8.13;;;21.60;99.90;;;;;;4394778;32;20159;-74
2021/06/30 05:11:57;;;;;;;11.73;8.17;;;21.60;99.90;;;;;;4393117;32;20189;-70
2021/06/30 05:14:29;;;;;;;11.53;8.50;;;21.50;99.90;;;;;;4395036;32;20171;-70
2021/06/30 05:17:01;;;;;;;11.93;8.57;;;21.60;99.90;;;;;;4396451;32;20179;-70
2021/06/30 05:19:33;;;;;;;10.37;8.77;;;21.50;99.90;;;;;;4399501;32;20186;-70
2021/06/30 05:22:05;;;;;;;11.87;8.33;;;21.50;99.90;;;;;;4394246;32;20152;-70
2021/06/30 05:24:37;;;;;;;16.40;9.40;;;21.50;99.90;;;;;;4394232;32;20231;-67
2021/06/30 05:27:09;;;;;;;12.07;9.10;;;21.30;99.90;;;;;;4394608;32;20143;-66
2021/06/30 05:29:41;;;;;;;13.73;9.67;;;21.30;99.90;;;;;;4394409;32;20281;-65
2021/06/30 05:32:14;;;;;;;12.53;9.37;;;21.30;99.90;;;;;;4394724;32;20508;-66
2021/06/30 05:34:46;;;;;;;13.23;10.10;;;21.20;99.90;;;;;;4394109;32;20166;-66
2021/06/30 05:37:18;;;;;;;13.67;9.87;;;21.20;99.90;;;;;;4394626;32;20135;-66
2021/06/30 05:39:49;;;;;;;14.07;9.23;;;21.10;99.90;;;;;;4394188;32;20591;-66
2021/06/30 05:42:21;;;;;;;12.37;9.40;;;21.10;99.90;;;;;;4392614;32;20147;-65
2021/06/30 05:44:54;;;;;;;11.47;9.80;;;21.00;99.90;;;;;;4394310;32;20191;-65
2021/06/30 05:47:25;;;;;;;12.70;10.10;;;20.80;99.90;;;;;;4393696;32;20159;-67
2021/06/30 05:49:57;;;;;;;15.70;10.07;;;20.80;99.90;;;;;;4392596;32;20367;-64
2021/06/30 05:52:29;;;;;;;14.10;10.40;;;20.70;99.90;;;;;;4393199;32;20144;-65
2021/06/30 05:55:00;;;;;;;15.67;10.17;;;20.50;99.90;;;;;;4393910;32;20155;-65
2021/06/30 05:57:33;;;;;;;13.20;10.83;;;20.50;99.90;;;;;;4394499;32;20466;-64
2021/06/30 06:00:17;;;;;;;12.43;11.00;;;20.40;99.90;;;;;;4394041;32;20152;-65
2021/06/30 06:02:50;;;;;;;15.63;11.90;;;20.30;99.90;;;;;;4393965;32;20262;-67
2021/06/30 06:05:21;;;;;;;17.07;12.13;;;20.30;99.90;;;;;;4393577;32;20151;-67
2021/06/30 06:07:53;;;;;;;17.73;12.63;;;20.10;99.90;;;;;;4393781;32;20166;-66
2021/06/30 06:10:25;;;;;;;15.53;12.63;;;20.00;99.90;;;;;;4393989;32;20170;-66
2021/06/30 06:12:57;;;;;;;18.33;12.60;;;20.00;99.90;;;;;;4393886;32;20145;-66
2021/06/30 06:15:29;;;;;;;18.70;13.90;;;19.90;99.90;;;;;;4393923;32;20159;-66
2021/06/30 06:18:01;;;;;;;18.10;13.53;;;19.90;99.90;;;;;;4394347;32;20193;-66
2021/06/30 06:20:33;;;;;;;18.00;13.73;;;19.80;99.90;;;;;;4393823;32;20193;-66
2021/06/30 06:23:04;;;;;;;17.73;13.30;;;19.90;99.90;;;;;;4394582;32;20147;-66
2021/06/30 06:25:36;;;;;;;18.57;13.67;;;19.90;99.90;;;;;;4394546;32;20419;-66
2021/06/30 06:28:08;;;;;;;18.23;13.67;;;19.90;99.90;;;;;;4394097;32;20199;-66
2021/06/30 06:30:40;;;;;;;18.33;13.73;;;20.00;99.90;;;;;;4397238;32;20175;-66
2021/06/30 06:33:12;;;;;;;22.77;14.20;;;20.10;99.90;;;;;;4397314;32;20173;-66
2021/06/30 06:35:44;;;;;;;18.27;13.80;;;20.10;99.90;;;;;;4396825;32;20388;-67
2021/06/30 06:38:16;;;;;;;18.00;13.83;;;20.20;99.90;;;;;;4396589;32;20171;-66
2021/06/30 06:40:48;;;;;;;19.13;14.03;;;20.40;99.90;;;;;;4397260;32;20261;-66
2021/06/30 11:17:33;;;;;;;9.48;7.93;;;29.90;84.50;;;;;;4406122;32;20175;-70
2021/06/30 11:20:01;;;;;;;12.20;8.18;;;29.80;86.60;;;;;;4411952;32;20197;-66
2021/06/30 11:22:30;;;;;;;12.10;9.10;;;29.40;88.20;;;;;;4412228;32;20139;-66
2021/06/30 11:24:58;;;;;;;11.85;8.73;;;29.10;89.50;;;;;;4412167;32;20163;-66
2021/06/30 11:27:34;;;;;;;9.32;8.20;;;29.00;90.60;;;;;;4410466;32;20159;-67
2021/06/30 11:30:08;;;;;;;12.52;9.02;;;29.50;90.60;;;;;;4409045;32;20151;-66
2021/06/30 11:35:16;;;;;;;12.65;8.10;;;29.90;89.20;;;;;;4410191;32;20147;-67
2021/06/30 11:37:45;;;;;;;11.98;8.77;;;30.10;87.70;;;;;;4411048;32;20434;-66
2021/06/30 11:40:24;;;;;;;11.10;8.52;;;30.60;88.50;;;;;;4410342;32;20201;-66
2021/06/30 11:42:53;;;;;;;10.02;8.18;;;30.70;85.70;;;;;;4411606;32;20233;-66
2021/06/30 11:45:27;;;;;;;9.90;8.55;;;30.80;85.80;;;;;;4412006;32;20147;-67
2021/06/30 11:47:57;;;;;;;11.07;9.00;;;30.80;85.70;;;;;;4410673;32;20134;-66
2021/06/30 11:50:31;;;;;;;10.90;8.88;;;30.90;84.80;;;;;;4410216;32;20191;-66
2021/06/30 11:52:59;;;;;;;15.45;9.35;;;30.80;86.60;;;;;;4411691;32;20134;-66
2021/06/30 11:55:34;;;;;;;11.68;9.52;;;30.50;86.50;;;;;;4411557;32;20147;-66
2021/06/30 11:58:03;;;;;;;10.43;8.90;;;30.60;87.00;;;;;;4411648;32;20225;-65
2021/06/30 12:00:33;;;;;;;10.93;9.00;;;30.60;86.70;;;;;;4409635;32;20148;-66
2021/06/30 12:03:03;;;;;;;12.18;8.90;;;31.30;87.20;;;;;;4412193;32;20526;-66
2021/06/30 12:05:32;;;;;;;11.63;9.00;;;32.00;86.00;;;;;;4411216;32;20202;-66
2021/06/30 12:07:59;;;;;;;11.35;8.43;;;33.00;84.80;;;;;;4411572;32;20483;-67
2021/06/30 12:10:31;;;;;;;13.50;8.45;;;33.80;80.20;;;;;;4409911;32;20140;-65
2021/06/30 12:13:00;;;;;;;11.50;9.07;;;34.30;76.70;;;;;;4411605;32;20368;-66
2021/06/30 12:15:28;;;;;;;11.88;8.88;;;34.50;73.60;;;;;;4411502;32;20170;-66
2021/06/30 12:17:57;;;;;;;11.32;9.30;;;34.30;74.80;;;;;;4410150;32;20560;-65
2021/06/30 12:20:27;;;;;;;11.25;9.50;;;33.10;74.90;;;;;;4411634;32;20418;-65
2021/06/30 12:22:55;;;;;;;11.18;9.52;;;32.60;76.10;;;;;;4409779;32;20507;-66
2021/06/30 12:25:25;;;;;;;12.60;10.70;;;32.60;76.90;;;;;;4411209;32;20178;-66
2021/06/30 12:27:53;;;;;;;12.40;10.63;;;32.10;75.90;;;;;;4411202;32;20136;-66
2021/06/30 12:30:25;;;;;;;12.52;11.05;;;31.30;80.20;;;;;;4409908;32;20143;-66
2021/06/30 12:32:58;;;;;;;15.07;11.77;;;31.40;82.00;;;;;;4411150;32;20460;-67
2021/06/30 12:35:30;;;;;;;13.90;10.70;;;32.00;82.00;;;;;;4411004;32;20218;-67
2021/06/30 12:38:04;;;;;;;14.45;11.70;;;32.90;80.20;;;;;;4409518;32;20175;-66
2021/06/30 12:40:47;;;;;;;13.90;11.52;;;33.80;75.50;;;;;;4409728;32;20139;-67
2021/06/30 12:43:17;;;;;;;14.40;12.52;;;34.60;72.10;;;;;;4409620;32;20457;-66
2021/06/30 12:45:52;;;;;;;13.98;12.10;;;34.00;71.80;;;;;;4410207;32;20192;-66
2021/06/30 12:48:23;;;;;;;13.70;12.30;;;33.00;75.60;;;;;;4410978;32;20146;-66
2021/06/30 12:50:55;;;;;;;14.15;12.00;;;32.70;77.90;;;;;;4409330;32;20147;-66
2021/06/30 12:53:25;;;;;;;14.30;12.02;;;32.90;77.20;;;;;;4410981;32;20413;-67
2021/06/30 12:55:58;;;;;;;14.75;12.18;;;33.40;76.20;;;;;;4409402;32;20445;-67
2021/06/30 12:58:43;;;;;;;17.15;11.88;;;33.70;74.30;;;;;;4408622;32;20457;-67
2021/06/30 13:01:12;;;;;;;12.93;11.63;;;34.20;73.90;;;;;;4409965;32;20181;-67
2021/06/30 13:03:47;;;;;;;13.75;11.70;;;33.70;74.80;;;;;;4410769;32;20177;-65
2021/06/30 13:06:26;;;;;;;14.68;12.05;;;34.40;73.10;;;;;;4410138;32;20155;-66
2021/06/30 13:09:07;;;;;;;13.27;11.35;;;34.90;69.80;;;;;;4409521;32;20151;-66
2021/06/30 13:11:44;;;;;;;13.27;11.95;;;35.60;68.40;;;;;;4410722;32;20408;-66
2021/06/30 13:14:15;;;;;;;13.48;11.63;;;36.00;63.80;;;;;;4409066;32;20200;-66
2021/06/30 13:16:53;;;;;;;14.43;11.23;;;35.70;64.70;;;;;;4410907;32;20148;-66
2021/06/30 13:19:22;;;;;;;15.90;11.85;;;35.50;65.80;;;;;;4408895;32;20159;-67
2021/06/30 13:21:57;;;;;;;12.02;10.82;;;34.50;67.70;;;;;;4409006;32;20136;-67
2021/06/30 13:24:37;;;;;;;13.62;11.23;;;34.90;68.40;;;;;;4410399;32;20146;-66
2021/06/30 13:35:20;;;;;;;13.35;11.98;;;34.70;64.60;;;;;;4410178;32;20170;-66
2021/06/30 13:37:52;;;;;;;12.70;10.63;;;33.40;68.60;;;;;;4408939;32;20453;-67
2021/06/30 13:40:19;;;;;;;14.60;11.73;;;32.90;70.30;;;;;;4410513;32;20139;-67
2021/06/30 13:42:49;;;;;;;22.23;14.95;;;32.50;72.10;;;;;;4408586;32;20139;-72
2021/06/30 13:45:16;;;;;;;17.37;12.75;;;31.80;75.20;;;;;;4410322;32;20216;-72
2021/06/30 13:47:43;;;;;;;13.77;12.43;;;31.40;77.20;;;;;;4409956;32;20461;-72
2021/06/30 13:50:11;;;;;;;14.77;12.45;;;31.20;78.80;;;;;;4408872;32;20167;-72
2021/06/30 13:52:38;;;;;;;17.00;13.55;;;31.00;79.80;;;;;;4409909;32;20343;-72
2021/06/30 13:55:05;;;;;;;17.02;12.73;;;30.60;81.30;;;;;;4408446;32;20425;-72
2021/06/30 13:57:32;;;;;;;18.83;14.30;;;30.50;81.70;;;;;;4408441;32;20166;-72
2021/06/30 13:59:59;;;;;;;35.97;14.10;;;29.80;85.30;;;;;;4406590;32;20312;-72
2021/06/30 14:02:26;;;;;;;21.77;12.80;;;29.80;85.80;;;;;;4408397;32;20193;-69
2021/06/30 14:04:54;;;;;;;13.40;11.35;;;29.60;86.50;;;;;;4408114;32;20236;-70
2021/06/30 14:07:21;;;;;;;15.10;10.95;;;29.60;86.10;;;;;;4408246;32;20178;-71
2021/06/30 14:09:48;;;;;;;24.67;10.40;;;30.40;84.10;;;;;;4409808;32;20462;-69
2021/06/30 14:12:15;;;;;;;10.95;9.75;;;31.10;81.80;;;;;;4408236;32;20380;-67
2021/06/30 14:14:41;;;;;;;11.12;9.48;;;30.70;81.40;;;;;;4408356;32;20457;-67
2021/06/30 14:17:09;;;;;;;9.30;8.30;;;31.10;80.70;;;;;;4409572;32;20171;-66
2021/06/30 14:19:35;;;;;;;11.35;8.55;;;31.50;77.60;;;;;;4407890;32;20498;-67
2021/06/30 14:22:03;;;;;;;10.32;7.15;;;31.80;77.20;;;;;;4408066;32;20166;-67
2021/06/30 14:24:29;;;;;;;8.02;7.03;;;32.50;73.30;;;;;;4408044;32;20204;-67
2021/06/30 14:26:56;;;;;;;7.12;6.10;;;32.90;70.00;;;;;;4409610;32;20189;-67
2021/06/30 14:29:23;;;;;;;8.93;6.90;;;33.70;67.50;;;;;;4409650;32;20172;-66
2021/06/30 14:31:50;;;;;;;7.40;6.57;;;33.90;64.50;;;;;;4408097;32;20139;-67
2021/06/30 14:34:17;;;;;;;7.75;6.12;;;33.90;63.50;;;;;;4409658;32;20434;-66
2021/06/30 14:36:44;;;;;;;6.43;5.75;;;34.00;62.40;;;;;;4408225;32;20497;-67
2021/06/30 14:39:11;;;;;;;7.72;5.85;;;34.10;63.40;;;;;;4409029;32;20462;-67
2021/06/30 14:41:38;;;;;;;7.10;5.50;;;34.30;63.60;;;;;;4408171;32;20135;-67
2021/06/30 14:44:05;;;;;;;5.70;5.10;;;34.80;60.20;;;;;;4408821;32;20198;-67
2021/06/30 14:46:31;;;;;;;6.47;4.85;;;35.40;58.40;;;;;;4408797;32;20543;-67
2021/06/30 14:48:58;;;;;;;7.05;4.97;;;35.60;57.70;;;;;;4410531;32;20143;-66
2021/06/30 14:51:25;;;;;;;8.20;4.85;;;36.30;56.80;;;;;;4410945;32;20147;-66
2021/06/30 14:53:52;;;;;;;5.68;5.12;;;36.00;55.70;;;;;;4412291;32;20222;-66
2021/06/30 14:56:19;;;;;;;7.80;4.45;;;35.50;55.50;;;;;;4411327;32;20155;-66
2021/06/30 14:58:46;;;;;;;5.22;4.60;;;35.50;56.00;;;;;;4412502;32;20208;-67
2021/06/30 15:01:13;;;;;;;8.00;4.30;;;35.20;56.60;;;;;;4411910;32;20143;-66
2021/06/30 15:03:40;;;;;;;5.57;4.50;;;34.50;57.60;;;;;;4412250;32;20152;-67
2021/06/30 15:06:07;;;;;;;10.30;4.40;;;35.10;56.00;;;;;;4410708;32;20154;-66
2021/06/30 15:08:34;;;;;;;5.07;4.20;;;34.80;55.80;;;;;;4412032;32;20166;-67
2021/06/30 15:11:01;;;;;;;4.40;4.00;;;35.20;55.30;;;;;;4410712;32;20206;-66
2021/06/30 15:13:28;;;;;;;5.30;3.55;;;36.10;54.50;;;;;;4412135;32;20155;-66
2021/06/30 15:15:55;;;;;;;5.40;3.60;;;35.50;52.90;;;;;;4411901;32;20147;-67
2021/06/30 15:18:23;;;;;;;6.00;3.90;;;36.20;52.30;;;;;;4408205;32;20522;-67
2021/06/30 15:20:50;;;;;;;5.57;3.85;;;36.30;52.00;;;;;;4403242;32;20213;-67
2021/06/30 15:23:17;;;;;;;6.35;3.90;;;36.60;51.80;;;;;;4405713;32;20151;-66
2021/06/30 15:25:48;;;;;;;5.95;4.10;;;36.80;51.20;;;;;;4409680;32;20148;-66
2021/06/30 15:28:15;;;;;;;5.37;4.03;;;36.80;50.80;;;;;;4411193;32;20143;-67
2021/06/30 15:30:44;;;;;;;5.15;4.10;;;36.00;51.50;;;;;;4409900;32;20383;-64
2021/06/30 15:33:11;;;;;;;4.43;4.03;;;35.90;51.70;;;;;;4411092;32;20183;-64
2021/06/30 15:35:38;;;;;;;5.50;4.30;;;35.60;52.50;;;;;;4411327;32;20180;-64
2021/06/30 15:38:06;;;;;;;6.78;4.40;;;35.90;52.40;;;;;;4411462;32;20190;-65
2021/06/30 15:40:34;;;;;;;6.65;4.40;;;35.90;52.40;;;;;;4411258;32;20222;-65
2021/06/30 15:43:01;;;;;;;8.10;5.18;;;35.70;53.20;;;;;;4402893;32;20301;-64
2021/06/30 15:45:27;;;;;;;5.25;4.62;;;34.50;55.30;;;;;;4407497;32;20523;-63
2021/06/30 15:47:54;;;;;;;5.37;4.45;;;34.90;55.10;;;;;;4411098;32;20222;-64
2021/06/30 15:50:21;;;;;;;6.65;4.25;;;35.10;54.00;;;;;;4411136;32;20171;-64
2021/06/30 15:52:48;;;;;;;5.07;4.30;;;35.50;53.60;;;;;;4411579;32;20161;-63
2021/06/30 15:55:20;;;;;;;5.10;4.00;;;35.20;54.00;;;;;;4411231;32;20144;-64
2021/06/30 15:57:49;;;;;;;5.43;4.07;;;35.20;53.50;;;;;;4411413;32;20143;-65
2021/06/30 16:00:19;;;;;;;4.50;4.10;;;34.50;54.60;;;;;;4410924;32;20147;-65
2021/06/30 16:02:46;;;;;;;4.78;4.15;;;34.00;55.30;;;;;;4409770;32;20268;-64
2021/06/30 16:05:15;;;;;;;6.40;4.30;;;34.10;55.40;;;;;;4411229;32;20169;-64
2021/06/30 16:07:42;;;;;;;4.62;4.00;;;33.90;55.60;;;;;;4411476;32;20186;-64
2021/06/30 16:10:12;;;;;;;6.55;4.10;;;34.20;55.30;;;;;;4410794;32;20408;-64
2021/06/30 16:12:40;;;;;;;5.55;4.30;;;34.30;54.90;;;;;;4410327;32;20199;-65
2021/06/30 16:15:09;;;;;;;6.05;4.70;;;32.70;57.70;;;;;;4411151;32;20189;-64
2021/06/30 16:17:39;;;;;;;5.30;4.62;;;32.30;58.60;;;;;;4410659;32;20201;-64
2021/06/30 16:20:07;;;;;;;6.47;4.70;;;32.40;58.60;;;;;;4411224;32;20148;-64
2021/06/30 16:22:34;;;;;;;6.15;4.70;;;32.20;59.00;;;;;;4411046;32;20143;-63
2021/06/30 16:25:03;;;;;;;8.68;4.95;;;31.30;61.50;;;;;;4411224;32;20217;-63
2021/06/30 16:27:29;;;;;;;7.78;5.37;;;30.80;63.30;;;;;;4411179;32;20147;-63
2021/06/30 16:29:57;;;;;;;6.47;5.22;;;30.70;63.30;;;;;;4410680;32;20193;-63
2021/06/30 16:32:24;;;;;;;6.40;5.20;;;29.70;67.40;;;;;;4409433;32;20162;-63
2021/06/30 16:34:51;;;;;;;10.15;5.28;;;29.40;69.10;;;;;;4409153;32;20488;-64
2021/06/30 16:37:19;;;;;;;5.62;4.90;;;29.10;70.60;;;;;;4409854;32;20148;-64
2021/06/30 16:39:46;;;;;;;5.62;4.62;;;28.90;71.80;;;;;;4403015;32;20212;-64
2021/06/30 16:42:13;;;;;;;5.50;4.82;;;28.70;72.90;;;;;;4400996;32;20147;-63
2021/06/30 16:44:40;;;;;;;5.60;4.20;;;28.60;73.70;;;;;;4397867;32;20493;-63
2021/06/30 16:47:07;;;;;;;7.10;4.65;;;28.60;74.20;;;;;;4395305;32;20152;-63
2021/06/30 16:49:34;;;;;;;4.87;4.37;;;28.50;74.40;;;;;;4395399;32;20162;-64
2021/06/30 16:52:01;;;;;;;5.03;4.18;;;28.30;75.30;;;;;;4395484;32;20527;-64
2021/06/30 16:54:28;;;;;;;4.78;4.25;;;28.20;75.70;;;;;;4395914;32;20140;-64
2021/06/30 16:56:55;;;;;;;6.82;4.60;;;28.20;75.60;;;;;;4393776;32;20163;-64
2021/06/30 16:59:26;;;;;;;6.57;4.28;;;28.10;76.20;;;;;;4396002;32;20143;-64
2021/06/30 17:01:53;;;;;;;6.35;4.60;;;27.70;77.50;;;;;;4395658;32;20143;-64
2021/06/30 17:04:20;;;;;;;6.45;4.25;;;27.60;78.00;;;;;;4394722;32;20193;-64
2021/06/30 17:06:47;;;;;;;5.32;4.25;;;27.50;78.30;;;;;;4394693;32;20179;-64
2021/06/30 17:09:14;;;;;;;4.78;4.05;;;27.20;78.80;;;;;;4393194;32;20143;-64
2021/06/30 17:11:41;;;;;;;4.65;4.15;;;27.00;78.90;;;;;;4394682;32;20377;-64
2021/06/30 17:14:08;;;;;;;5.47;4.30;;;27.00;79.30;;;;;;4394686;32;20144;-63
2021/06/30 17:16:37;;;;;;;5.62;4.50;;;27.10;79.40;;;;;;4393275;32;20144;-63
2021/06/30 17:19:04;;;;;;;6.55;4.30;;;27.10;79.50;;;;;;4393530;32;20179;-63
2021/06/30 17:21:31;;;;;;;5.78;3.92;;;27.20;78.50;;;;;;4394852;32;20144;-63
2021/06/30 17:23:58;;;;;;;4.97;4.07;;;27.10;78.10;;;;;;4394897;32;20507;-64
2021/06/30 17:26:27;;;;;;;5.00;4.50;;;27.00;78.70;;;;;;4394880;32;20171;-63
2021/06/30 17:28:54;;;;;;;6.53;4.05;;;26.90;79.60;;;;;;4394386;32;20362;-64
2021/06/30 17:31:21;;;;;;;6.03;4.30;;;26.60;80.30;;;;;;4395259;32;20163;-63
2021/06/30 17:33:49;;;;;;;8.57;4.12;;;26.60;80.00;;;;;;4394809;32;20140;-63
2021/06/30 17:36:16;;;;;;;6.05;4.22;;;26.60;79.70;;;;;;4394716;32;20155;-63
2021/06/30 17:38:43;;;;;;;4.72;3.70;;;26.70;79.30;;;;;;4394931;32;20148;-63
2021/06/30 17:41:11;;;;;;;4.03;3.55;;;26.90;79.10;;;;;;4394913;32;20147;-63